Central Sierra Snow Lab Weather observations

Data are for 10 minute period ending at time listed.
 Day   Time    Incoming  Reflected   Ave.   Ave.    Ave.    Vector  Max.    Ave.    Total    Snow   
  of    of      Solar     Solar      Air    Rel.    Wind    Wind    Wind   Baro.   Precip.   Depth  
Year   Day     Radiation Radiation   Temp.  Humid.  Speed   Dir.    Gust   Press.                   
2017   (PST)    Kw/m2     Kw/m2       F       %      mph     deg.    mph     mb.     in.      in.   
----------------------------------------------------------------------------------------------------
  86   13:20    0.086     999.000     35.1     70     2.8     203     6.3   791.90   11.24   131.50  
  86   13:30    0.101     999.000     37.2     67     2.2     245     5.0   791.90   11.24   131.30  
  86   13:40    0.122     999.000     38.1     64     2.4     256     7.3   792.00   11.25   131.00  
  86   13:50    0.135     999.000     37.9     61     3.1     236     7.5   792.10   11.24   131.00  
  86   14:00    0.165     999.000     38.1     58     3.9     247    10.9   792.20   11.24   130.80  
  86   14:10    0.158     999.000     38.0     60     2.4     312     7.9   792.30   11.25   130.70  
  86   14:20    0.185     999.000     37.8     56     3.6     281     8.7   792.30   11.24   130.60  
  86   14:30    0.208     999.000     38.6     54     3.5     276     8.4   791.90   11.24   130.60  
  86   14:40    0.111     999.000     36.4     62     3.3     333     9.0   792.00   11.25   130.70  
  86   14:50    0.107     999.000     34.7     64     2.9     353     7.9   792.20   11.24   130.60  
  86   15:00    0.193     999.000     34.8     66     4.2     302     8.4   792.50   11.24   130.70  
  86   15:10    0.279     999.000     36.7     59     3.8     297     7.6   792.40   11.24   130.50  
  86   15:20    0.196     999.000     35.9     58     2.6     313     9.0   792.40   11.24   130.40  
  86   15:30    0.167     999.000     36.2     61     1.5     305     3.7   792.40   11.24   130.40  
  86   15:40    0.225     999.000     36.4     58     1.6     360     4.1   792.40   11.25   130.30  
  86   15:50    0.141     999.000     37.4     57     1.0      40     2.8   792.50   11.24   130.20  
  86   16:00    0.142     999.000     36.5     60     1.9       9     5.0   792.50   11.24   130.30  
  86   16:10    0.101     999.000     34.4     64     2.9      29     9.3   792.50   11.24   130.40  
  86   16:20    0.060     999.000     33.7     66     2.6      16     5.4   792.40   11.24   130.30  
  86   16:30    0.053     999.000     33.4     69     1.3     351     3.2   792.50   11.24   130.30  
  86   16:40    0.070     999.000     33.6     68     2.6     339     8.5   792.60   11.24   130.30  
  86   16:50    0.086     999.000     35.1     63     3.1     334     7.2   792.80   11.24   130.20  
  86   17:00    0.129     999.000     36.6     59     2.1     354     6.4   792.90   11.24   130.10  
  86   17:10    0.133     999.000     36.8     58     1.7     354     5.0   792.90   11.24   130.10  
  86   17:20    0.091     999.000     35.7     60     1.5      14     4.5   793.00   11.24   130.10  
  86   17:30    0.061     999.000     35.3     63     1.9     334     4.1   793.20   11.24   130.10  
  86   17:40    0.062     999.000     34.5     64     2.2     326     5.1   793.30   11.24   130.10  
  86   17:50    0.042     999.000     33.9     68     1.4       7     3.7   793.30   11.24   130.00  
  86   18:00    0.029     999.000     33.1     76     0.7      50     2.2   793.40   11.24   130.00  
  86   18:10    0.012     999.000     32.4     73     1.6      79     4.4   793.30   11.25   130.00  
  86   18:20    0.005     999.000     31.7     73     2.3      68     4.7   793.20   11.24   130.00  
  86   18:30    0.001     999.000     30.9     77     1.4     112     5.1   793.20   11.24   130.10  
  86   18:40    0.001     999.000     30.4     78     0.9     137     2.6   793.40   11.24   130.00  
  86   18:50    0.000     999.000     30.1     81     0.6     101     3.0   793.70   11.24   130.00  
  86   19:00    0.000     999.000     29.6     84     0.8      66     3.0   793.90   11.25   130.10  
  86   19:10    0.000     999.000     29.2     87     1.1      80     2.4   793.90   11.24   130.00  
  86   19:20    0.000     999.000     28.7     89     1.1      86     2.4   794.00   11.24   129.90  
  86   19:30    0.000     999.000     28.6     86     1.5      49     5.4   793.80   11.25   129.90  
  86   19:40    0.000     999.000     28.8     83     0.8     160     3.8   793.90   11.24   129.80  
  86   19:50    0.000     999.000     28.6     86     0.7     286     2.5   794.40   11.25   129.90  
  86   20:00    0.000     999.000     28.0     88     0.8     126     2.6   794.50   11.25   130.00  
  86   20:10    0.000     999.000     28.0     85     1.4     136     3.8   794.50   11.24   129.90  
  86   20:20    0.000     999.000     28.1     82     1.1     104     4.1   794.50   11.24   130.00  
  86   20:30    0.000     999.000     28.0     84     0.9     238     2.9   794.40   11.24   129.90  
  86   20:40    0.000     999.000     27.4     87     0.6     225     2.8   794.50   11.24   129.80  
  86   20:50    0.000     999.000     27.1     89     1.1     235     3.0   794.50   11.24   129.90  
  86   21:00    0.000     999.000     27.2     85     0.6     173     4.5   794.40   11.25   130.00  
  86   21:10    0.000     999.000     27.7     81     2.3     140     6.8   794.40   11.24   129.90  
  86   21:20    0.000     999.000     28.1     78     2.0     159     5.8   794.40   11.24   129.90  
  86   21:30    0.000     999.000     28.2     76     2.3     145     9.4   794.40   11.24   129.90  
  86   21:40    0.000     999.000     28.1     77     2.9     182     6.1   794.50   11.25   129.90  
  86   21:50    0.000     999.000     28.0     77     2.4     149     5.8   794.40   11.25   129.90  
  86   22:00    0.000     999.000     27.9     79     1.9     216     4.6   794.50   11.25   129.80  
  86   22:10    0.000     999.000     27.1     83     2.0     173     5.1   794.40   11.25   129.90  
  86   22:20    0.000     999.000     27.4     79     2.2     169     4.7   794.40   11.25   129.90  
  86   22:30    0.000     999.000     27.1     82     2.3     177     5.5   794.60   11.24   129.90  
  86   22:40    0.000     999.000     26.8     82     2.2     161     4.7   794.50   11.24   129.90  
  86   22:50    0.000     999.000     26.9     81     2.6     145     5.2   794.60   11.24   129.90  
  86   23:00    0.000     999.000     26.9     81     2.6     143     4.6   794.70   11.24   129.90  
  86   23:10    0.000     999.000     27.3     78     2.8     125     8.4   794.80   11.24   129.90  
  86   23:20    0.000     999.000     27.4     79     3.3     109     8.7   794.90   11.24   129.90  
  86   23:30    0.000     999.000     27.1     80     2.9     110     7.2   794.90   11.24   129.90  
  86   23:40    0.000     999.000     27.3     78     3.4     112     8.2   794.90   11.24   129.80  
  86   23:50    0.000     999.000     27.2     79     3.2     116     7.8   794.80   11.25   129.80  
  87    0:00    0.000     999.000     27.4     78     3.7     109     9.7   794.80   11.24   129.80  
  87    0:10    0.000     999.000     27.8     76     3.7     116     8.2   794.70   11.25   129.80  
  87    0:20    0.000     999.000     27.6     77     2.9      84     7.9   794.60   11.25   129.80  
  87    0:30    0.000     999.000     27.6     77     3.4      70    10.3   794.60   11.24   129.80  
  87    0:40    0.000     999.000     27.5     78     4.7      57    12.0   794.50   11.24   129.80  
  87    0:50    0.000     999.000     27.2     79     4.4      48     8.2   794.00   11.24   129.80  
  87    1:00    0.000     999.000     27.3     78     4.4      30    11.8   793.90   11.25   129.80  
  87    1:10    0.000     999.000     27.3     78     4.2      24     9.6   793.90   11.24   129.80  
  87    1:20    0.000     999.000     27.2     77     4.6      10    11.9   793.70   11.24   129.80  
  87    1:30    0.000     999.000     27.2     76     3.7      11    12.1   793.70   11.24   129.80  
  87    1:40    0.000     999.000     27.2     76     4.8      19    10.5   793.60   11.24   129.80  
  87    1:50    0.000     999.000     27.3     75     4.4      24    10.4   793.40   11.24   129.80  
  87    2:00    0.000     999.000     27.2     76     4.1      12     9.4   793.40   11.24   129.80  
  87    2:10    0.000     999.000     27.0     76     4.5     360    10.7   793.20   11.25   129.80  
  87    2:20    0.000     999.000     26.9     76     3.3       4     8.3   793.10   11.25   129.80  
  87    2:30    0.000     999.000     26.7     76     2.0       3     9.8   793.00   11.24   129.80  
  87    2:40    0.000     999.000     26.6     76     2.0     335     5.4   793.10   11.25   129.80  
  87    2:50    0.000     999.000     26.5     76     1.3     359     5.2   793.20   11.25   129.80  
  87    3:00    0.000     999.000     26.4     76     1.7     172     4.4   793.10   11.25   129.70  
  87    3:10    0.000     999.000     26.4     76     1.5     228     3.8   793.00   11.24   129.70  
  87    3:20    0.000     999.000     26.5     75     3.2     108    11.5   792.80   11.25   129.80  
  87    3:30    0.000     999.000     26.4     75     2.7     144     8.3   792.70   11.25   129.70  
  87    3:40    0.000     999.000     26.5     75     4.2      82    10.2   792.80   11.24   129.80  
  87    3:50    0.000     999.000     26.4     74     2.9      68     9.2   792.90   11.25   129.70  
  87    4:00    0.000     999.000     26.4     75     3.9      48    11.9   792.90   11.24   129.70  
  87    4:10    0.000     999.000     26.3     76     3.6      34     9.0   792.90   11.25   129.60  
  87    4:20    0.000     999.000     26.1     76     3.2      57    11.4   792.90   11.25   129.60  
  87    4:30    0.000     999.000     26.0     76     3.5      51    10.4   792.90   11.25   129.60  
  87    4:40    0.000     999.000     26.2     74     3.4      70     9.8   793.00   11.25   129.60  
  87    4:50    0.000     999.000     25.8     76     2.9      53     9.3   793.00   11.25   129.60  
  87    5:00    0.000     999.000     25.7     75     4.0      56    13.0   792.90   11.25   129.60  
  87    5:10    0.000     999.000     25.6     76     3.4      79    12.5   792.90   11.25   129.60  
  87    5:20    0.000     999.000     25.3     78     3.1      61     7.8   793.00   11.25   129.60  
  87    5:30    0.000     999.000     25.2     78     3.3      60    11.4   793.10   11.24   129.60  
  87    5:40    0.000     999.000     25.1     78     3.9      62    12.0   793.20   11.24   129.70  
  87    5:50    0.001     999.000     25.1     78     3.6      49    11.8   793.20   11.24   129.60  
  87    6:00    0.002     999.000     25.0     79     4.3      56    10.5   793.20   11.25   129.60  
  87    6:10    0.005     999.000     25.1     78     4.6      78    12.2   793.20   11.24   129.60  
  87    6:20    0.011     999.000     25.2     78     4.4      91     9.7   793.30   11.24   129.60  
  87    6:30    0.012     999.000     25.4     77     4.1     126     8.3   793.40   11.24   129.60  
  87    6:40    0.018     999.000     25.6     77     4.2     108    14.7   793.60   11.24   129.60  
  87    6:50    0.016     999.000     25.8     77     3.7      61     8.6   793.80   11.24   129.50  
  87    7:00    0.015     999.000     25.9     77     4.2      44    12.6   793.90   11.25   129.60  
  87    7:10    0.019     999.000     26.2     76     4.5      62    14.3   794.30   11.25   129.60  
  87    7:20    0.101     999.000     26.5     76     5.0      71    12.2   794.50   11.24   129.50  
  87    7:30    0.077     999.000     27.0     74     4.2      72    12.8   794.60   11.24   129.50  
  87    7:40    0.286     999.000     27.5     74     4.3      63    13.2   794.50   11.24   129.40  
  87    7:50    0.209     999.000     28.3     72     4.9      70    13.1   794.50   11.24   129.40  
  87    8:00    0.354     999.000     29.1     70     4.1      76    14.2   794.50   11.25   129.40  
  87    8:10    0.387     999.000     29.6     69     4.4      61     9.6   794.50   11.24   129.50  
  87    8:20    0.419     999.000     30.1     69     3.8      49    11.2   794.40   11.24   129.40  
  87    8:30    0.452     999.000     30.5     69     3.7      71    11.2   794.40   11.24   129.40  
  87    8:40    0.488     999.000     30.9     68     4.7      93    13.3   794.40   11.24   129.30  
  87    8:50    0.503     999.000     31.5     67     4.9      51    12.8   794.30   11.24   129.30  
  87    9:00    0.533     999.000     32.2     65     4.7      46    10.9   794.60   11.24   129.30  
  87    9:10    0.562     999.000     33.2     63     4.7      56    13.7   794.50   11.24   129.20  
  87    9:20    0.592     999.000     33.5     62     5.6      81    10.7   794.60   11.24   129.10  
  87    9:30    0.621     999.000     34.3     61     5.2      78    13.5   794.80   11.25   129.10  
  87    9:40    0.650     999.000     36.0     58     3.7      90     9.7   795.00   11.24   129.10  
  87    9:50    0.674     999.000     36.7     56     4.6      77    11.2   795.10   11.24   129.10  
  87   10:00    0.696     999.000     36.9     55     4.7      96    13.8   795.00   11.25   129.10  
  87   10:10    0.718     999.000     37.7     53     4.1      74    10.7   795.10   11.24   129.10  
  87   10:20    0.738     999.000     38.4     52     3.6      86     8.7   795.10   11.24   129.00  
  87   10:30    0.756     999.000     38.8     51     3.2      78    12.2   795.10   11.24   129.00  
  87   10:40    0.770     999.000     38.9     50     4.1     100    13.1   795.00   11.24   129.00  
  87   10:50    0.786     999.000     39.6     48     3.2      93     9.7   794.90   11.25   128.90  
  87   11:00    0.806     999.000     40.8     46     4.0     100     8.7   794.70   11.25   128.90  
  87   11:10    0.824     999.000     39.9     47     5.1     105    11.2   794.60   11.25   129.00  
  87   11:20    0.823     999.000     41.4     45     3.0     139     7.1   794.60   11.24   128.90  
  87   11:30    0.833     999.000     41.8     46     3.3      89    11.6   794.60   11.24   128.90  
  87   11:40    0.846     999.000     41.6     46     3.9      75    10.1   794.60   11.24   128.90  
  87   11:50    0.855     999.000     42.8     45     3.2      85     8.4   794.80   11.25   128.80  
  87   12:00    0.847     999.000     43.3     44     2.9     192     7.5   794.90   11.24   128.60  
  87   12:10    0.849     999.000     43.3     43     4.0     138    12.8   795.00   11.24   128.60  
  87   12:20    0.855     999.000     42.5     44     5.1     119    12.8   795.00   11.24   128.60  
  87   12:30    0.861     999.000     43.6     42     3.0     121     8.4   795.10   11.24   128.40  
  87   12:40    0.849     999.000     43.9     41     3.9      88    11.6   795.00   11.24   128.40  
  87   12:50    0.848     999.000     45.4     40     2.3     110     7.3   794.90   11.24   128.20  
  87   13:00    0.842     999.000     44.8     42     3.6     107     8.1   795.00   11.24   128.10  
  87   13:10    0.847     999.000     45.0     42     3.7      94    10.6   795.00   11.23   128.10  

Return to Central Sierra Snow Lab graphs page.


Western Regional Climate Center,wrcc@dri.edu